Time;durP1;ratioP1;P1;durP2;ratioP2;P2;SDS_P1;SDS_P2;PMS_P1;PMS_P2;Temp;Humidity;BMP_temperature;BMP_pressure;BME280_temperature;BME280_humidity;BME280_pressure;Samples;Min_cycle;Max_cycle;Signal;HPM_P1;HPM_P2
2021/09/21 00:04:37;;;;;;;8.73;5.60;;;;;;;8.91;100.00;102660.81;10498823;28;20075;-57
2021/09/21 00:09:40;;;;;;;10.15;5.45;;;;;;;8.93;100.00;102672.94;10498612;28;20048;-53
2021/09/21 00:14:42;;;;;;;7.78;5.97;;;;;;;8.97;100.00;102673.72;10498659;28;20052;-55
2021/09/21 00:19:44;;;;;;;8.85;5.20;;;;;;;8.57;100.00;102668.44;10498535;28;20046;-56
2021/09/21 00:24:47;;;;;;;7.57;5.45;;;;;;;8.83;100.00;102675.78;10498246;28;20056;-57
2021/09/21 00:29:49;;;;;;;9.52;6.45;;;;;;;8.55;100.00;102676.28;10498140;28;20059;-58
2021/09/21 00:34:52;;;;;;;7.10;6.40;;;;;;;8.38;100.00;102663.53;10498228;28;20055;-54
2021/09/21 00:39:55;;;;;;;10.50;6.72;;;;;;;8.46;100.00;102661.69;10498279;28;20052;-55
2021/09/21 00:45:00;;;;;;;8.07;6.35;;;;;;;8.42;100.00;102673.00;10497722;28;20048;-55
2021/09/21 00:50:02;;;;;;;7.72;6.28;;;;;;;8.41;100.00;102679.13;10497852;28;20052;-59
2021/09/21 00:55:05;;;;;;;12.10;6.38;;;;;;;8.16;100.00;102678.72;10497648;28;20414;-56
2021/09/21 01:00:09;;;;;;;9.45;6.65;;;;;;;8.08;100.00;102673.63;10496477;28;20052;-57
2021/09/21 01:05:12;;;;;;;8.05;6.35;;;;;;;8.16;100.00;102682.16;10496134;28;20044;-57
2021/09/21 01:10:25;;;;;;;6.68;5.68;;;;;;;8.32;100.00;102697.56;10502274;28;20055;-58
2021/09/21 01:15:27;;;;;;;11.90;7.47;;;;;;;8.02;100.00;102707.66;10505900;28;20071;-55
2021/09/21 01:20:30;;;;;;;8.88;6.55;;;;;;;8.00;100.00;102717.22;10505860;28;20052;-58
2021/09/21 01:25:33;;;;;;;7.65;6.82;;;;;;;8.01;100.00;102721.56;10505123;28;20055;-57
2021/09/21 01:30:36;;;;;;;8.15;6.82;;;;;;;8.29;100.00;102702.84;10505254;28;20048;-56
2021/09/21 01:35:38;;;;;;;7.93;6.45;;;;;;;8.06;100.00;102713.66;10505240;28;20052;-57
2021/09/21 01:40:40;;;;;;;10.52;7.15;;;;;;;7.89;100.00;102706.13;10504364;28;20515;-56
2021/09/21 01:45:43;;;;;;;10.85;7.53;;;;;;;7.76;100.00;102698.47;10504149;28;20044;-57
2021/09/21 02:01:08;;;;;;;10.23;7.88;;;;;;;7.79;100.00;102676.72;10503823;28;20044;-55
2021/09/21 02:06:11;;;;;;;14.88;8.63;;;;;;;7.75;100.00;102672.41;10503575;28;20051;-56
2021/09/21 02:11:14;;;;;;;10.48;8.00;;;;;;;7.73;100.00;102672.47;10502998;28;20049;-54
2021/09/21 02:16:17;;;;;;;10.30;8.27;;;;;;;7.62;100.00;102664.78;10503052;28;20209;-56
2021/09/21 02:21:19;;;;;;;12.75;8.48;;;;;;;7.67;100.00;102675.16;10501838;28;20060;-57
2021/09/21 02:26:22;;;;;;;11.00;8.95;;;;;;;7.53;100.00;102680.56;10502886;28;20060;-56
2021/09/21 02:31:24;;;;;;;14.32;8.43;;;;;;;7.74;100.00;102676.78;10502617;28;20048;-57
2021/09/21 02:36:26;;;;;;;8.73;7.78;;;;;;;7.61;100.00;102672.63;10502626;28;20063;-57
2021/09/21 02:41:29;;;;;;;14.88;8.93;;;;;;;7.59;100.00;102675.25;10500887;28;20067;-57
2021/09/21 02:46:31;;;;;;;10.73;8.60;;;;;;;7.55;100.00;102677.94;10501633;28;20049;-56
2021/09/21 02:51:33;;;;;;;11.10;8.45;;;;;;;7.61;100.00;102689.13;10501474;28;20431;-58
2021/09/21 02:56:36;;;;;;;11.48;7.90;;;;;;;7.59;100.00;102690.03;10501994;28;20053;-57
2021/09/21 03:01:38;;;;;;;13.68;8.32;;;;;;;7.62;100.00;102697.81;10501151;28;20059;-57
2021/09/21 03:06:46;;;;;;;12.68;9.88;;;;;;;7.64;100.00;102709.09;10501071;28;20056;-58
2021/09/21 03:11:54;;;;;;;17.17;9.02;;;;;;;7.59;100.00;102709.13;10500955;28;20055;-57
2021/09/21 03:22:07;;;;;;;9.35;8.05;;;;;;;7.75;100.00;102719.34;10500376;28;20492;-54
2021/09/21 03:27:10;;;;;;;11.23;9.27;;;;;;;7.69;100.00;102730.72;10500103;28;20052;-55
2021/09/21 03:32:12;;;;;;;10.93;8.07;;;;;;;7.53;100.00;102743.13;10499922;28;20041;-57
2021/09/21 03:37:15;;;;;;;10.20;8.45;;;;;;;7.41;100.00;102738.06;10499774;28;20052;-55
2021/09/21 03:42:17;;;;;;;13.00;9.85;;;;;;;7.28;100.00;102733.88;10499626;28;20064;-56
2021/09/21 03:47:19;;;;;;;11.07;9.50;;;;;;;7.40;100.00;102738.97;10499455;28;20055;-56
2021/09/21 03:52:22;;;;;;;12.80;9.95;;;;;;;7.28;100.00;102734.78;10499363;28;20044;-57
2021/09/21 03:57:24;;;;;;;12.82;9.32;;;;;;;7.36;100.00;102752.91;10499403;28;20052;-54
2021/09/21 04:02:26;;;;;;;11.90;9.20;;;;;;;7.38;100.00;102754.63;10498089;28;20059;-54
2021/09/21 04:07:29;;;;;;;14.43;10.75;;;;;;;7.11;100.00;102765.34;10498744;28;20058;-56
2021/09/21 04:12:31;;;;;;;12.63;10.55;;;;;;;7.04;100.00;102772.38;10497913;28;20059;-56
2021/09/21 04:17:34;;;;;;;11.48;8.95;;;;;;;7.04;100.00;102772.38;10498965;28;20484;-56
2021/09/21 04:22:39;;;;;;;11.85;9.93;;;;;;;7.01;100.00;102769.81;10499123;28;20045;-56
2021/09/21 04:27:42;;;;;;;13.18;9.48;;;;;;;7.09;100.00;102770.59;10496687;28;20061;-57
2021/09/21 04:32:44;;;;;;;14.90;11.10;;;;;;;7.02;100.00;102767.19;10498258;28;20041;-54
2021/09/21 04:37:47;;;;;;;12.57;10.35;;;;;;;7.00;100.00;102778.50;10497945;28;20044;-56
2021/09/21 04:42:49;;;;;;;16.08;11.00;;;;;;;6.82;100.00;102776.94;10497482;28;20045;-54
2021/09/21 04:47:52;;;;;;;15.98;11.90;;;;;;;6.98;100.00;102788.09;10498149;28;20044;-53
2021/09/21 04:52:54;;;;;;;17.42;11.50;;;;;;;6.99;100.00;102806.31;10497993;28;20041;-55
2021/09/21 04:57:56;;;;;;;15.82;12.00;;;;;;;7.30;100.00;102782.50;10498433;28;20056;-56
2021/09/21 05:02:59;;;;;;;21.80;14.00;;;;;;;7.02;100.00;102777.59;10497649;28;20075;-57
2021/09/21 05:08:01;;;;;;;24.20;12.77;;;;;;;7.36;100.00;102803.28;10497248;28;20048;-53
2021/09/21 05:13:03;;;;;;;16.52;13.25;;;;;;;7.47;100.00;102812.72;10497249;28;20399;-58
2021/09/21 05:18:06;;;;;;;23.35;15.75;;;;;;;7.61;100.00;102829.91;10497333;28;20055;-54
2021/09/21 05:23:08;;;;;;;17.55;12.48;;;;;;;7.46;100.00;102845.72;10497661;28;20056;-56
2021/09/21 05:28:11;;;;;;;15.02;11.75;;;;;;;8.07;100.00;102848.44;10497288;28;20131;-57
2021/09/21 05:33:13;;;;;;;16.83;12.63;;;;;;;7.81;100.00;102844.44;10497047;28;20044;-57
2021/09/21 05:38:15;;;;;;;23.00;15.02;;;;;;;8.10;100.00;102841.44;10495893;28;20059;-56
2021/09/21 05:43:18;;;;;;;19.58;15.10;;;;;;;8.12;100.00;102847.50;10496776;28;20044;-55
2021/09/21 05:48:20;;;;;;;25.42;13.45;;;;;;;8.24;100.00;102835.13;10496815;28;20049;-57
2021/09/21 05:53:22;;;;;;;22.42;14.45;;;;;;;8.27;100.00;102846.41;10496503;28;20048;-56
2021/09/21 05:58:25;;;;;;;21.58;15.77;;;;;;;8.76;100.00;102842.19;10501346;28;20044;-57
2021/09/21 06:03:29;;;;;;;22.23;15.77;;;;;;;8.62;100.00;102838.94;10503778;28;20052;-56
2021/09/21 06:08:32;;;;;;;21.58;15.52;;;;;;;8.77;100.00;102846.50;10503268;28;20048;-56
2021/09/21 06:13:34;;;;;;;22.67;16.20;;;;;;;8.88;100.00;102841.13;10503787;28;20397;-57
2021/09/21 06:18:37;;;;;;;18.95;14.65;;;;;;;8.97;100.00;102855.75;10503271;28;20049;-57
2021/09/21 06:23:39;;;;;;;23.08;16.90;;;;;;;9.23;100.00;102850.03;10502669;28;20516;-55
2021/09/21 06:28:42;;;;;;;20.48;16.23;;;;;;;9.30;100.00;102865.59;10502810;28;20057;-54
2021/09/21 06:33:44;;;;;;;20.75;15.13;;;;;;;9.74;100.00;102864.75;10502848;28;20049;-57
2021/09/21 06:38:46;;;;;;;19.63;13.65;;;;;;;9.89;100.00;102887.97;10502441;28;20052;-54
2021/09/21 06:43:49;;;;;;;15.30;13.50;;;;;;;10.08;100.00;102898.03;10502034;28;20041;-55
2021/09/21 06:48:51;;;;;;;16.30;13.00;;;;;;;10.48;100.00;102894.56;10501643;28;20045;-56
2021/09/21 06:53:53;;;;;;;21.13;14.75;;;;;;;10.33;100.00;102911.47;10501512;28;20497;-56
2021/09/21 06:58:56;;;;;;;21.08;15.07;;;;;;;10.63;100.00;102907.28;10501231;28;20499;-57
2021/09/21 07:03:59;;;;;;;20.83;14.65;;;;;;;10.86;100.00;102906.72;10500080;28;20404;-57
2021/09/21 07:09:02;;;;;;;17.50;12.60;;;;;;;11.05;100.00;102895.78;10500294;28;20098;-57
2021/09/21 07:14:05;;;;;;;18.17;13.88;;;;;;;11.15;100.00;102899.88;10501628;28;20060;-57
2021/09/21 07:19:07;;;;;;;24.50;17.67;;;;;;;10.70;100.00;102890.50;10500531;28;20530;-56
2021/09/21 07:24:10;;;;;;;22.45;14.15;;;;;;;11.32;100.00;102904.66;10500868;28;20041;-58
2021/09/21 07:29:12;;;;;;;21.38;15.20;;;;;;;11.53;100.00;102913.69;10500397;28;20135;-56
2021/09/21 07:34:14;;;;;;;28.10;20.92;;;;;;;11.38;99.04;102919.38;10500171;28;20055;-56
2021/09/21 07:39:20;;;;;;;26.05;19.60;;;;;;;11.67;100.00;102926.44;10499717;28;20044;-57
2021/09/21 07:44:22;;;;;;;29.25;23.05;;;;;;;12.09;98.59;102915.66;10499589;28;20477;-58
2021/09/21 07:49:25;;;;;;;29.83;23.63;;;;;;;12.15;95.99;102912.81;10499343;28;20530;-55
2021/09/21 07:54:27;;;;;;;24.70;21.55;;;;;;;12.15;94.72;102920.69;10499397;28;20054;-56
2021/09/21 07:59:30;;;;;;;23.77;19.73;;;;;;;12.41;96.62;102930.41;10498824;28;20431;-54
2021/09/21 08:04:32;;;;;;;23.83;20.92;;;;;;;12.78;95.84;102929.22;10499036;28;20044;-57
2021/09/21 08:09:36;;;;;;;22.60;19.90;;;;;;;12.90;95.07;102929.75;10499135;28;20103;-57
2021/09/21 08:14:39;;;;;;;22.83;18.90;;;;;;;12.76;93.47;102933.69;10499024;28;20053;-55
2021/09/21 08:19:41;;;;;;;23.23;19.08;;;;;;;13.04;95.75;102945.91;10497337;28;20071;-57
2021/09/21 08:24:44;;;;;;;21.67;18.63;;;;;;;13.29;95.10;102968.75;10498926;28;20070;-57
2021/09/21 08:29:47;;;;;;;23.83;18.60;;;;;;;13.25;95.79;102999.56;10498650;28;20053;-55
2021/09/21 08:34:49;;;;;;;24.05;20.23;;;;;;;13.33;95.48;103001.97;10497298;28;20520;-56
2021/09/21 08:39:51;;;;;;;24.65;22.00;;;;;;;13.41;90.74;102986.78;10497859;28;20374;-55
2021/09/21 08:44:54;;;;;;;23.30;19.50;;;;;;;14.64;83.95;102994.56;10497770;28;20040;-57
2021/09/21 08:49:57;;;;;;;21.42;17.88;;;;;;;14.00;88.51;103000.50;10497852;28;20400;-57
2021/09/21 08:55:00;;;;;;;21.27;16.70;;;;;;;13.91;87.72;102992.00;10497773;28;20503;-57
2021/09/21 09:00:06;;;;;;;17.27;14.45;;;;;;;14.90;81.69;103000.59;10497639;28;20041;-57
2021/09/21 09:05:11;;;;;;;22.95;15.43;;;;;;;14.58;80.34;103006.19;10497478;28;20419;-56
2021/09/21 09:10:15;;;;;;;19.10;14.55;;;;;;;14.36;82.74;103002.69;10497373;28;20044;-56
2021/09/21 09:15:20;;;;;;;18.83;13.68;;;;;;;15.53;78.66;102996.19;10497334;28;20151;-57
2021/09/21 09:20:34;;;;;;;16.90;12.18;;;;;;;16.10;78.00;103006.84;10496394;28;20059;-55
2021/09/21 09:25:41;;;;;;;17.45;11.75;;;;;;;16.11;74.20;102989.25;10497374;28;20048;-58
2021/09/21 09:30:45;;;;;;;18.15;10.38;;;;;;;16.66;73.00;102986.63;10501072;28;20063;-57
2021/09/21 09:35:49;;;;;;;12.25;5.68;;;;;;;18.07;59.52;102982.13;10504709;28;20064;-58
2021/09/21 09:40:54;;;;;;;7.25;6.32;;;;;;;17.77;63.32;102980.16;10504558;28;20044;-58
2021/09/21 09:45:59;;;;;;;2.92;2.65;;;;;;;19.14;56.84;102991.13;10503039;28;20051;-57
2021/09/21 09:51:02;;;;;;;2.67;2.47;;;;;;;18.19;50.17;102989.44;10504053;28;20079;-58
2021/09/21 09:56:05;;;;;;;2.70;2.50;;;;;;;18.59;51.53;102988.97;10504298;28;20052;-57
2021/09/21 10:01:07;;;;;;;2.85;2.08;;;;;;;19.47;48.56;102995.38;10502926;28;20076;-58
2021/09/21 10:06:10;;;;;;;2.65;1.80;;;;;;;19.94;48.92;102986.31;10503206;28;20477;-57
2021/09/21 10:11:12;;;;;;;2.10;1.90;;;;;;;20.26;48.93;102982.53;10502667;28;20052;-58
2021/09/21 10:16:15;;;;;;;2.03;1.73;;;;;;;20.89;45.12;102976.66;10503341;28;20063;-57
2021/09/21 10:21:18;;;;;;;3.28;2.03;;;;;;;20.51;47.18;102971.16;10502993;28;20054;-58
2021/09/21 10:26:23;;;;;;;2.50;2.30;;;;;;;20.09;41.79;102973.84;10501367;28;20044;-58
2021/09/21 10:31:26;;;;;;;19.45;6.70;;;;;;;19.75;46.06;102977.75;10503209;28;20040;-58
2021/09/21 10:36:30;;;;;;;4.47;1.90;;;;;;;21.65;49.38;102971.50;10501230;28;20056;-58
2021/09/21 10:41:32;;;;;;;2.60;2.05;;;;;;;23.16;44.25;102973.84;10501522;28;20047;-58
2021/09/21 10:46:44;;;;;;;3.97;2.97;;;;;;;21.79;44.61;102974.06;10500859;28;20411;-58
2021/09/21 10:51:50;;;;;;;3.90;2.25;;;;;;;21.94;44.15;102979.25;10501686;28;20048;-58
2021/09/21 10:56:52;;;;;;;2.58;1.85;;;;;;;22.07;42.62;102977.41;10501611;28;20048;-58
2021/09/21 11:01:56;;;;;;;1.88;1.73;;;;;;;21.91;44.11;102979.50;10501155;28;20440;-58
2021/09/21 11:06:59;;;;;;;3.22;2.00;;;;;;;22.65;42.07;102977.66;10500551;28;20127;-58
2021/09/21 11:12:07;;;;;;;4.97;2.30;;;;;;;22.12;40.02;102985.09;10501089;28;20041;-58
2021/09/21 11:17:10;;;;;;;3.00;2.40;;;;;;;21.60;39.24;102976.31;10499693;28;20048;-58
2021/09/21 11:22:16;;;;;;;5.53;2.20;;;;;;;20.41;43.69;102976.25;10500779;28;20049;-58
2021/09/21 11:27:19;;;;;;;2.47;2.00;;;;;;;20.73;40.24;102974.16;10500209;28;20550;-57
2021/09/21 11:32:22;;;;;;;2.22;2.00;;;;;;;22.46;39.13;102956.84;10500299;28;20056;-58
2021/09/21 11:37:26;;;;;;;2.45;2.25;;;;;;;21.69;41.93;102962.34;10499950;28;20110;-58
2021/09/21 11:42:31;;;;;;;4.07;1.77;;;;;;;22.82;41.45;102955.88;10499902;28;20044;-58
2021/09/21 11:47:37;;;;;;;3.22;2.15;;;;;;;22.27;41.79;102962.63;10499672;28;20410;-58
2021/09/21 11:52:41;;;;;;;2.13;2.00;;;;;;;22.77;39.48;102952.69;10499392;28;20051;-58
2021/09/21 11:57:45;;;;;;;4.53;1.95;;;;;;;21.68;41.86;102950.81;10499281;28;20052;-58
2021/09/21 12:02:55;;;;;;;3.13;2.10;;;;;;;22.02;44.86;102950.22;10498926;28;20044;-58
2021/09/21 12:08:06;;;;;;;4.32;1.73;;;;;;;21.60;43.48;102952.34;10499220;28;20127;-57
2021/09/21 12:13:17;;;;;;;2.03;1.83;;;;;;;23.26;43.69;102945.44;10497734;28;20076;-57
2021/09/21 12:18:23;;;;;;;5.28;2.85;;;;;;;22.43;42.42;102941.88;10498519;28;20484;-58
2021/09/21 12:23:27;;;;;;;4.80;2.28;;;;;;;22.18;42.56;102944.63;10498518;28;20400;-58
2021/09/21 12:28:33;;;;;;;5.03;2.40;;;;;;;23.07;40.55;102935.34;10498526;28;20056;-58
2021/09/21 12:33:40;;;;;;;3.17;1.88;;;;;;;21.31;40.06;102939.22;10498452;28;20044;-57
2021/09/21 12:38:42;;;;;;;3.40;2.08;;;;;;;23.02;40.93;102944.66;10497970;28;20454;-58
2021/09/21 12:43:45;;;;;;;3.67;2.03;;;;;;;22.04;42.62;102948.28;10498268;28;20044;-58
2021/09/21 12:48:48;;;;;;;2.47;2.28;;;;;;;21.20;42.18;102936.41;10498157;28;20052;-58
2021/09/21 12:53:59;;;;;;;3.75;1.95;;;;;;;20.66;42.57;102937.41;10497841;28;20056;-58
2021/09/21 12:59:13;;;;;;;4.97;2.10;;;;;;;21.19;42.61;102948.06;10497992;28;20067;-58
2021/09/21 13:04:15;;;;;;;1.90;1.80;;;;;;;20.19;44.51;102943.06;10499069;28;20053;-58
2021/09/21 13:09:18;;;;;;;2.55;2.00;;;;;;;20.26;44.26;102927.56;10504598;28;20566;-58
2021/09/21 13:14:20;;;;;;;4.53;2.20;;;;;;;20.76;44.31;102933.16;10506013;28;20040;-58
2021/09/21 13:19:23;;;;;;;2.00;1.67;;;;;;;20.46;46.04;102920.94;10505474;28;20045;-58
2021/09/21 13:24:25;;;;;;;4.85;2.72;;;;;;;20.87;44.90;102912.00;10505930;28;20041;-58
2021/09/21 13:29:27;;;;;;;1.80;1.70;;;;;;;20.81;42.81;102919.56;10504904;28;20049;-58
2021/09/21 13:34:30;;;;;;;1.90;1.80;;;;;;;20.92;44.94;102919.69;10504716;28;20060;-58
2021/09/21 13:39:32;;;;;;;3.75;2.53;;;;;;;20.82;44.95;102907.97;10503519;28;20044;-58
2021/09/21 13:44:34;;;;;;;5.93;2.17;;;;;;;21.30;44.18;102908.19;10504523;28;20055;-58
2021/09/21 13:49:37;;;;;;;5.15;2.05;;;;;;;20.86;41.85;102910.28;10504434;28;20059;-58
2021/09/21 13:54:39;;;;;;;6.30;2.38;;;;;;;21.45;43.07;102900.94;10504347;28;20050;-58
2021/09/21 13:59:41;;;;;;;5.72;2.33;;;;;;;20.46;46.95;102904.97;10503896;28;20051;-57
2021/09/21 14:04:45;;;;;;;6.65;1.85;;;;;;;21.19;44.15;102908.09;10503770;28;20044;-58
2021/09/21 14:09:48;;;;;;;2.97;1.95;;;;;;;20.85;46.79;102899.78;10503299;28;20054;-58
2021/09/21 14:14:52;;;;;;;3.20;2.03;;;;;;;20.28;46.84;102895.53;10502229;28;20079;-58
2021/09/21 14:19:54;;;;;;;6.22;3.05;;;;;;;20.95;46.13;102904.34;10502292;28;20049;-58
2021/09/21 14:24:57;;;;;;;3.92;2.60;;;;;;;21.99;45.60;102905.97;10503440;28;20111;-58
2021/09/21 14:30:00;;;;;;;5.78;3.40;;;;;;;19.75;44.94;102904.19;10502364;28;20056;-58
2021/09/21 14:35:03;;;;;;;3.67;2.60;;;;;;;20.94;48.34;102907.13;10502149;28;20127;-59
2021/09/21 14:40:07;;;;;;;10.40;4.60;;;;;;;20.30;46.79;102889.16;10501113;28;20040;-58
2021/09/21 14:45:11;;;;;;;6.82;3.08;;;;;;;21.14;46.30;102903.94;10502296;28;20048;-59
2021/09/21 14:50:16;;;;;;;5.40;4.10;;;;;;;21.00;47.13;102912.03;10502096;28;20044;-58
2021/09/21 14:55:19;;;;;;;4.80;2.75;;;;;;;21.47;45.47;102920.38;10501830;28;20480;-58
2021/09/21 15:00:22;;;;;;;3.92;2.40;;;;;;;20.47;48.23;102924.44;10502049;28;20045;-58
2021/09/21 15:05:24;;;;;;;2.50;2.28;;;;;;;19.87;45.80;102915.88;10501208;28;20412;-59
2021/09/21 15:10:27;;;;;;;2.80;2.33;;;;;;;19.43;47.34;102917.69;10501339;28;20503;-59
2021/09/21 15:15:30;;;;;;;1.67;1.58;;;;;;;20.51;48.84;102913.50;10501333;28;20044;-58
2021/09/21 15:20:32;;;;;;;3.97;2.40;;;;;;;20.44;49.97;102914.00;10500715;28;20408;-58
2021/09/21 15:25:34;;;;;;;3.30;1.80;;;;;;;19.81;51.42;102903.81;10500390;28;20370;-58
2021/09/21 15:30:37;;;;;;;8.52;2.17;;;;;;;19.28;53.30;102903.53;10500138;28;20060;-59
2021/09/21 15:35:39;;;;;;;2.30;1.83;;;;;;;18.87;56.59;102909.53;10500192;28;20058;-59
2021/09/21 15:40:47;;;;;;;3.00;2.42;;;;;;;18.15;63.23;102903.03;10499569;28;20052;-58
2021/09/21 15:45:51;;;;;;;2.33;1.98;;;;;;;17.64;68.45;102903.16;10500207;28;20045;-58
2021/09/21 15:50:54;;;;;;;4.95;2.10;;;;;;;17.61;66.06;102904.16;10500162;28;20052;-58
2021/09/21 15:55:56;;;;;;;2.25;2.05;;;;;;;17.82;66.33;102898.66;10499355;28;20063;-58
2021/09/21 16:00:59;;;;;;;3.17;2.42;;;;;;;17.60;72.32;102897.19;10498783;28;20389;-58
2021/09/21 16:06:01;;;;;;;4.75;1.90;;;;;;;17.79;70.30;102889.06;10498869;28;20044;-58
2021/09/21 16:11:04;;;;;;;4.50;2.58;;;;;;;17.34;75.50;102892.41;10498347;28;20045;-59
2021/09/21 16:16:07;;;;;;;3.35;1.92;;;;;;;17.43;76.04;102883.97;10498906;28;20052;-58
2021/09/21 16:21:10;;;;;;;3.53;1.67;;;;;;;16.92;80.18;102899.00;10498566;28;20119;-58
2021/09/21 16:26:12;;;;;;;12.10;3.67;;;;;;;16.85;79.78;102901.09;10498347;28;20443;-59
2021/09/21 16:31:19;;;;;;;4.25;1.92;;;;;;;16.57;79.94;102889.22;10498155;28;20048;-58
2021/09/21 16:36:23;;;;;;;5.03;2.95;;;;;;;17.15;76.73;102897.81;10498713;28;20048;-58
2021/09/21 16:41:26;;;;;;;3.22;2.05;;;;;;;16.28;83.25;102906.50;10497534;28;20044;-58
2021/09/21 16:46:30;;;;;;;1.90;1.80;;;;;;;16.18;80.68;102910.53;10498231;28;20133;-58
2021/09/21 16:51:33;;;;;;;3.55;2.20;;;;;;;15.85;83.00;102917.28;10497777;28;20098;-58
2021/09/21 16:56:36;;;;;;;2.83;1.85;;;;;;;15.78;85.91;102905.31;10497423;28;20059;-58
2021/09/21 17:01:40;;;;;;;3.63;1.88;;;;;;;15.47;85.83;102909.31;10497827;28;20051;-58
2021/09/21 17:06:43;;;;;;;4.03;2.72;;;;;;;15.43;85.16;102899.81;10497586;28;20044;-58
2021/09/21 17:11:45;;;;;;;3.33;1.90;;;;;;;15.15;88.29;102908.09;10497796;28;20045;-59
2021/09/21 17:16:47;;;;;;;4.30;2.33;;;;;;;14.74;89.69;102915.97;10496673;28;20053;-58
2021/09/21 17:21:50;;;;;;;4.63;2.90;;;;;;;14.70;89.32;102904.69;10497146;28;20075;-58
2021/09/21 17:26:52;;;;;;;2.40;2.20;;;;;;;14.56;89.29;102913.13;10497235;28;20063;-58
2021/09/21 17:31:55;;;;;;;3.67;2.38;;;;;;;14.38;91.75;102917.38;10498203;28;20060;-59
2021/09/21 17:36:57;;;;;;;4.78;2.65;;;;;;;14.26;91.16;102929.25;10497160;28;20074;-58
2021/09/21 17:41:59;;;;;;;6.60;3.40;;;;;;;14.08;91.05;102929.97;10496880;28;20396;-58
2021/09/21 17:47:02;;;;;;;11.27;4.40;;;;;;;13.75;93.82;102943.47;10496546;28;20415;-59
2021/09/21 17:52:05;;;;;;;4.38;2.20;;;;;;;13.77;93.33;102946.03;10500479;28;20507;-59
2021/09/21 17:57:07;;;;;;;5.57;2.75;;;;;;;13.45;95.16;102945.41;10504643;28;20049;-58
2021/09/21 18:02:09;;;;;;;3.38;2.47;;;;;;;13.35;95.42;102944.91;10503916;28;20386;-58
2021/09/21 18:07:14;;;;;;;2.58;2.28;;;;;;;13.21;95.89;102937.44;10503594;28;20056;-58
2021/09/21 18:12:18;;;;;;;2.78;2.58;;;;;;;12.99;95.12;102950.47;10503565;28;20404;-58
2021/09/21 18:17:45;;;;;;;5.53;3.25;;;;;;;13.00;96.19;102954.81;10503362;28;20048;-59
2021/09/21 18:23:15;;;;;;;5.03;3.63;;;;;;;12.90;96.11;102958.66;10503178;28;20044;-58
2021/09/21 18:28:18;;;;;;;4.40;2.88;;;;;;;12.73;96.37;102961.84;10503567;28;20075;-58
2021/09/21 18:33:21;;;;;;;3.92;2.90;;;;;;;12.51;98.67;102969.53;10503072;28;20052;-58
2021/09/21 18:38:25;;;;;;;6.03;2.83;;;;;;;12.73;95.44;102960.06;10502490;28;20051;-58
2021/09/21 18:43:29;;;;;;;3.92;3.33;;;;;;;12.55;97.07;102961.50;10502782;28;20041;-58
2021/09/21 18:48:31;;;;;;;4.07;2.78;;;;;;;12.41;98.40;102968.97;10501728;28;20428;-58
2021/09/21 18:53:35;;;;;;;4.15;2.70;;;;;;;12.50;96.56;102970.44;10502475;28;20040;-58
2021/09/21 18:58:37;;;;;;;4.55;3.42;;;;;;;12.35;97.09;102967.38;10501523;28;20052;-58
2021/09/21 19:03:40;;;;;;;4.45;3.00;;;;;;;12.12;98.56;102972.44;10501283;28;20048;-57
2021/09/21 19:08:43;;;;;;;6.40;2.92;;;;;;;12.36;96.33;102960.38;10501194;28;20051;-58
2021/09/21 19:13:45;;;;;;;4.53;3.30;;;;;;;12.12;97.16;102961.94;10500921;28;20056;-58
2021/09/21 19:18:48;;;;;;;4.75;3.60;;;;;;;12.15;95.75;102967.09;10501317;28;20071;-58
2021/09/21 19:23:51;;;;;;;3.60;3.28;;;;;;;12.06;94.81;102970.88;10501138;28;20401;-57
2021/09/21 19:28:55;;;;;;;4.72;3.60;;;;;;;11.85;96.74;102973.19;10500619;28;20052;-57
2021/09/21 19:33:59;;;;;;;6.53;4.10;;;;;;;11.67;96.34;102979.78;10500245;28;20059;-57
2021/09/21 19:39:02;;;;;;;4.82;3.75;;;;;;;12.06;96.11;102976.13;10500491;28;20052;-58
2021/09/21 19:44:05;;;;;;;6.68;4.55;;;;;;;11.88;95.84;102980.97;10499811;28;20485;-58
2021/09/21 19:49:08;;;;;;;5.95;5.18;;;;;;;11.84;95.23;102986.34;10499468;28;20083;-58
2021/09/21 19:54:11;;;;;;;9.10;4.85;;;;;;;11.85;95.89;102991.56;10500119;28;20045;-58
2021/09/21 19:59:13;;;;;;;5.90;2.90;;;;;;;12.02;94.94;102998.97;10499328;28;20048;-58
2021/09/21 20:04:16;;;;;;;3.60;3.30;;;;;;;11.78;96.56;103007.50;10499493;28;20045;-58
2021/09/21 20:09:18;;;;;;;4.90;3.08;;;;;;;11.64;96.77;103010.50;10498796;28;20049;-58
2021/09/21 20:14:20;;;;;;;5.03;3.65;;;;;;;11.65;98.49;103015.72;10496815;28;20045;-57
2021/09/21 20:19:23;;;;;;;4.15;3.75;;;;;;;11.55;98.63;103019.47;10498718;28;20044;-58
2021/09/21 20:24:25;;;;;;;3.75;3.30;;;;;;;11.56;98.56;103028.19;10498732;28;20044;-58
2021/09/21 20:29:28;;;;;;;4.80;3.65;;;;;;;11.37;100.00;103017.31;10498832;28;20052;-59
2021/09/21 20:34:38;;;;;;;5.20;4.15;;;;;;;11.52;99.48;103011.69;10497441;28;20048;-57
2021/09/21 20:39:41;;;;;;;6.15;4.57;;;;;;;11.25;100.00;103011.47;10498585;28;20056;-57
2021/09/21 20:44:44;;;;;;;7.32;4.88;;;;;;;11.28;100.00;103011.41;10497373;28;20045;-58
2021/09/21 20:49:47;;;;;;;7.95;4.97;;;;;;;11.37;100.00;102998.97;10497476;28;20049;-57
2021/09/21 20:54:49;;;;;;;7.10;4.25;;;;;;;11.55;99.35;102995.88;10497825;28;20397;-57
2021/09/21 20:59:51;;;;;;;10.38;5.57;;;;;;;11.45;100.00;102997.00;10497534;28;20056;-59
2021/09/21 21:04:55;;;;;;;6.65;5.32;;;;;;;11.40;100.00;102994.50;10498140;28;20048;-58
2021/09/21 21:09:58;;;;;;;14.00;5.88;;;;;;;11.34;100.00;103002.50;10497188;28;20055;-58
2021/09/21 21:15:00;;;;;;;10.40;6.47;;;;;;;11.43;100.00;102999.66;10497580;28;20055;-58
2021/09/21 21:20:04;;;;;;;9.02;6.50;;;;;;;11.32;100.00;102999.09;10497356;28;20052;-58
2021/09/21 21:25:07;;;;;;;11.50;7.00;;;;;;;11.25;100.00;102998.38;10498294;28;20045;-58
2021/09/21 21:30:13;;;;;;;8.50;6.63;;;;;;;11.18;100.00;102985.44;10504902;28;20500;-57
2021/09/21 21:35:17;;;;;;;9.25;6.53;;;;;;;11.36;100.00;102992.84;10504977;28;20045;-58
2021/09/21 21:40:20;;;;;;;14.05;9.70;;;;;;;11.34;100.00;102992.03;10504528;28;20051;-58
2021/09/21 21:45:23;;;;;;;8.70;7.50;;;;;;;11.23;100.00;102979.19;10505377;28;20055;-57
2021/09/21 21:50:26;;;;;;;9.60;7.65;;;;;;;11.24;100.00;102977.44;10504126;28;20049;-57
2021/09/21 21:55:28;;;;;;;11.73;8.18;;;;;;;11.22;100.00;102972.22;10504241;28;20488;-57
2021/09/21 22:00:33;;;;;;;14.77;9.35;;;;;;;11.02;100.00;102967.47;10504037;28;20059;-58
2021/09/21 22:05:36;;;;;;;13.32;9.23;;;;;;;11.13;100.00;102968.06;10504184;28;20044;-57
2021/09/21 22:10:38;;;;;;;14.63;10.30;;;;;;;11.03;100.00;102958.72;10503277;28;20086;-57
2021/09/21 22:15:40;;;;;;;12.25;9.88;;;;;;;11.02;100.00;102974.50;10503398;28;20496;-57
2021/09/21 22:20:44;;;;;;;16.80;11.80;;;;;;;11.03;100.00;102965.69;10503073;28;20508;-58
2021/09/21 22:25:48;;;;;;;17.67;11.75;;;;;;;11.11;100.00;102962.03;10503905;28;20047;-57
2021/09/21 22:30:51;;;;;;;12.55;10.32;;;;;;;11.02;100.00;102950.91;10502617;28;20063;-57
2021/09/21 22:35:54;;;;;;;15.10;11.80;;;;;;;11.13;100.00;102952.34;10502525;28;20052;-58
2021/09/21 22:40:56;;;;;;;19.08;14.52;;;;;;;11.07;100.00;102947.25;10501825;28;20040;-59
2021/09/21 22:45:58;;;;;;;14.90;12.52;;;;;;;11.10;100.00;102947.19;10502664;28;20488;-57
2021/09/21 22:51:01;;;;;;;23.50;14.55;;;;;;;11.07;100.00;102949.88;10501965;28;20049;-57
2021/09/21 22:56:03;;;;;;;22.00;14.13;;;;;;;10.82;100.00;102954.84;10501775;28;20048;-58
2021/09/21 23:01:06;;;;;;;19.95;14.32;;;;;;;10.87;100.00;102942.50;10502344;28;20040;-57
2021/09/21 23:06:08;;;;;;;19.55;14.85;;;;;;;10.77;100.00;102943.63;10501457;28;20048;-58
2021/09/21 23:11:11;;;;;;;22.00;16.08;;;;;;;10.75;100.00;102941.03;10501177;28;20059;-57
2021/09/21 23:16:13;;;;;;;19.67;15.90;;;;;;;10.83;100.00;102943.47;10501357;28;20059;-58